Time;durP1;ratioP1;P1;durP2;ratioP2;P2;SDS_P1;SDS_P2;PMS_P1;PMS_P2;Temp;Humidity;BMP_temperature;BMP_pressure;BME280_temperature;BME280_humidity;BME280_pressure;Samples;Min_cycle;Max_cycle;Signal;HPM_P1;HPM_P2
2023/03/19 00:02:22;;;;;;;12.23;11.10;;;;;;;9.26;87.08;100715.75;5117276;28;20204;-69
2023/03/19 00:04:48;;;;;;;11.33;10.20;;;;;;;9.30;86.87;100713.75;5117073;28;20197;-70
2023/03/19 00:07:15;;;;;;;11.10;10.17;;;;;;;9.33;87.02;100711.72;5117016;28;20268;-70
2023/03/19 00:09:42;;;;;;;10.20;9.30;;;;;;;9.46;86.94;100721.63;5117454;28;20205;-71
2023/03/19 00:12:10;;;;;;;9.27;8.77;;;;;;;9.48;87.27;100720.56;5116825;28;20292;-71
2023/03/19 00:14:37;;;;;;;9.90;9.13;;;;;;;9.53;87.30;100729.13;5116831;28;20189;-71
2023/03/19 00:17:03;;;;;;;9.37;8.20;;;;;;;9.57;87.12;100729.75;5116812;28;20189;-71
2023/03/19 00:19:30;;;;;;;8.40;7.90;;;;;;;9.61;86.66;100728.59;5116789;28;20177;-71
2023/03/19 00:21:57;;;;;;;9.43;8.73;;;;;;;9.73;86.37;100719.72;5116668;28;20199;-70
2023/03/19 00:24:23;;;;;;;8.10;7.57;;;;;;;9.72;86.20;100722.50;5116811;28;20199;-70
2023/03/19 00:26:50;;;;;;;7.70;7.37;;;;;;;9.77;86.29;100720.38;5117289;28;20181;-70
2023/03/19 00:29:16;;;;;;;9.30;7.70;;;;;;;9.84;86.08;100736.84;5116608;28;20219;-71
2023/03/19 00:31:42;;;;;;;9.20;8.57;;;;;;;9.93;85.61;100741.56;5116453;28;20611;-69
2023/03/19 00:34:09;;;;;;;7.20;6.67;;;;;;;10.05;84.78;100750.56;5116504;28;20178;-70
2023/03/19 00:36:36;;;;;;;6.80;6.70;;;;;;;10.06;84.58;100757.66;5116919;28;20198;-70
2023/03/19 00:39:03;;;;;;;9.17;8.37;;;;;;;10.08;84.30;100761.06;5116372;28;20185;-70
2023/03/19 00:41:30;;;;;;;7.53;7.13;;;;;;;10.18;84.07;100756.78;5098082;28;20185;-70
2023/03/19 00:43:57;;;;;;;7.07;6.67;;;;;;;10.27;84.15;100758.84;5116200;28;20573;-69
2023/03/19 00:46:24;;;;;;;7.80;7.10;;;;;;;10.41;82.71;100771.25;5098030;28;20199;-69
2023/03/19 00:48:54;;;;;;;6.30;5.93;;;;;;;10.43;82.42;100762.16;5116420;28;20230;-69
2023/03/19 00:51:22;;;;;;;6.17;5.87;;;;;;;10.48;82.24;100763.66;5116839;28;20191;-70
2023/03/19 00:53:49;;;;;;;6.37;6.23;;;;;;;10.42;82.37;100762.28;5097783;28;20213;-70
2023/03/19 00:56:17;;;;;;;6.57;6.27;;;;;;;10.41;82.33;100761.44;5116065;28;20181;-70
2023/03/19 00:58:44;;;;;;;6.67;6.20;;;;;;;10.42;82.61;100741.72;5097872;28;20197;-71
2023/03/19 01:01:14;;;;;;;6.80;6.57;;;;;;;10.45;82.90;100727.25;5097801;28;20196;-71
2023/03/19 01:03:42;;;;;;;6.40;6.30;;;;;;;10.38;83.52;100728.66;5097648;28;20233;-70
2023/03/19 01:06:09;;;;;;;6.93;6.63;;;;;;;10.37;83.45;100737.66;5115037;28;20181;-70
2023/03/19 01:08:35;;;;;;;6.57;6.30;;;;;;;10.26;84.20;100729.50;5115515;28;20552;-70
2023/03/19 01:11:07;;;;;;;7.43;6.93;;;;;;;10.17;84.13;100734.50;5097529;28;20623;-70
2023/03/19 01:13:33;;;;;;;7.33;7.13;;;;;;;10.17;84.75;100737.19;5097493;28;20213;-70
2023/03/19 01:16:00;;;;;;;9.50;8.70;;;;;;;10.11;85.15;100740.31;5097499;28;20193;-70
2023/03/19 01:18:26;;;;;;;10.33;9.03;;;;;;;10.10;85.62;100741.25;5098211;28;20199;-70
2023/03/19 01:20:52;;;;;;;5.27;5.10;;;;;;;10.15;85.49;100748.97;5115582;28;20177;-70
2023/03/19 01:23:19;;;;;;;8.90;6.33;;;;;;;10.18;85.87;100748.78;5097242;28;20204;-70
2023/03/19 01:25:46;;;;;;;6.33;6.10;;;;;;;10.13;85.53;100742.88;5097332;28;20199;-70
2023/03/19 01:28:12;;;;;;;7.77;6.30;;;;;;;10.12;85.93;100746.50;5115968;28;20191;-70
2023/03/19 01:30:39;;;;;;;6.30;6.00;;;;;;;10.13;85.42;100735.72;5097031;28;20254;-70
2023/03/19 01:33:09;;;;;;;7.67;6.93;;;;;;;10.15;85.90;100739.13;5115833;28;20209;-70
2023/03/19 01:35:49;;;;;;;6.63;6.37;;;;;;;10.11;85.27;100729.59;5115602;28;20193;-70
2023/03/19 01:38:17;;;;;;;6.60;6.40;;;;;;;10.09;85.36;100733.34;5097282;28;20224;-70
2023/03/19 01:40:46;;;;;;;8.60;8.00;;;;;;;10.13;84.90;100738.38;5096953;28;20189;-70
2023/03/19 01:43:20;;;;;;;6.17;6.07;;;;;;;10.04;84.95;100733.66;5097070;28;20216;-70
2023/03/19 01:45:54;;;;;;;5.53;5.00;;;;;;;9.94;84.93;100728.09;5096847;28;20192;-70
2023/03/19 01:48:46;;;;;;;4.97;4.87;;;;;;;9.87;85.20;100721.47;5073509;28;20526;-70
2023/03/19 01:51:18;;;;;;;5.40;5.20;;;;;;;9.74;85.56;100726.78;5097191;28;20284;-70
2023/03/19 01:53:51;;;;;;;5.47;5.20;;;;;;;9.70;85.54;100729.78;5096608;28;20220;-70
2023/03/19 01:56:32;;;;;;;5.83;5.63;;;;;;;9.58;85.34;100715.44;5096616;28;20208;-70
2023/03/19 01:59:11;;;;;;;6.00;5.73;;;;;;;9.49;85.98;100718.72;5096602;28;20213;-70
2023/03/19 02:02:06;;;;;;;7.10;6.80;;;;;;;9.41;86.40;100718.38;5115008;28;20177;-70
2023/03/19 02:04:36;;;;;;;5.73;5.63;;;;;;;9.32;86.46;100709.16;5096562;28;20241;-70
2023/03/19 02:07:05;;;;;;;5.90;5.43;;;;;;;9.28;86.92;100716.53;5097628;28;20288;-70
2023/03/19 02:09:31;;;;;;;6.50;6.13;;;;;;;9.22;87.19;100708.06;5096307;28;20223;-70
2023/03/19 02:12:00;;;;;;;6.57;6.17;;;;;;;9.15;87.25;100711.16;5096267;28;20200;-70
2023/03/19 02:14:27;;;;;;;6.40;6.03;;;;;;;9.19;87.63;100706.44;5096228;28;20189;-70
2023/03/19 02:16:54;;;;;;;6.37;6.17;;;;;;;9.16;87.51;100712.00;5114770;28;20708;-70
2023/03/19 02:19:31;;;;;;;6.20;6.00;;;;;;;9.14;88.22;100714.75;5095845;28;20212;-70
2023/03/19 02:21:59;;;;;;;6.40;6.30;;;;;;;9.11;87.99;100720.31;5114813;28;20172;-70
2023/03/19 02:24:40;;;;;;;5.93;5.73;;;;;;;9.07;88.17;100707.25;5095915;28;20239;-70
2023/03/19 02:27:11;;;;;;;6.37;6.03;;;;;;;9.06;88.43;100708.22;5096085;28;20181;-70
2023/03/19 02:29:41;;;;;;;5.93;5.83;;;;;;;9.03;88.42;100714.63;5096863;28;20291;-70
2023/03/19 02:32:08;;;;;;;6.47;6.10;;;;;;;9.00;88.46;100712.13;5095900;28;20287;-70
2023/03/19 02:34:38;;;;;;;6.90;6.50;;;;;;;9.01;88.66;100713.03;5095933;28;20199;-70
2023/03/19 02:37:13;;;;;;;7.37;7.10;;;;;;;8.99;88.68;100710.44;5114134;28;20656;-70
2023/03/19 02:40:03;;;;;;;6.93;6.53;;;;;;;8.92;89.13;100717.13;5096104;28;20185;-70
2023/03/19 02:42:30;;;;;;;9.20;7.50;;;;;;;8.90;89.10;100714.56;5095753;28;20217;-70
2023/03/19 02:44:56;;;;;;;6.67;6.33;;;;;;;8.86;89.21;100715.72;5114247;28;20189;-70
2023/03/19 02:47:25;;;;;;;6.70;6.50;;;;;;;8.80;89.80;100710.78;5113954;28;20192;-70
2023/03/19 02:49:51;;;;;;;7.70;7.33;;;;;;;8.85;89.94;100713.16;5114395;28;20284;-70
2023/03/19 02:52:18;;;;;;;8.07;7.40;;;;;;;8.80;90.22;100707.25;5114148;28;20282;-70
2023/03/19 02:54:45;;;;;;;7.00;6.57;;;;;;;8.79;89.91;100714.41;5095938;28;20567;-71
2023/03/19 02:57:12;;;;;;;7.33;6.93;;;;;;;8.82;90.23;100713.34;5113828;28;20189;-71
2023/03/19 02:59:38;;;;;;;7.10;6.50;;;;;;;8.84;89.81;100711.44;5114102;28;20189;-71
2023/03/19 03:02:05;;;;;;;6.63;6.53;;;;;;;8.81;90.33;100709.84;5096061;28;20209;-69
2023/03/19 03:04:33;;;;;;;6.80;6.70;;;;;;;8.81;90.19;100703.63;5114028;28;20177;-70
2023/03/19 03:07:00;;;;;;;6.67;6.47;;;;;;;8.80;90.95;100708.09;5113775;28;20205;-70
2023/03/19 03:09:27;;;;;;;7.20;6.90;;;;;;;8.79;90.93;100703.75;5114170;28;20189;-70
2023/03/19 03:11:54;;;;;;;7.50;7.10;;;;;;;8.76;91.49;100703.91;5113516;28;20284;-70
2023/03/19 03:14:20;;;;;;;7.33;6.77;;;;;;;8.73;91.71;100706.78;5113919;28;20185;-70
2023/03/19 03:16:47;;;;;;;7.67;7.27;;;;;;;8.70;91.48;100707.84;5095493;28;20279;-70
2023/03/19 03:19:14;;;;;;;9.60;9.00;;;;;;;8.67;91.69;100705.38;5113541;28;20185;-70
2023/03/19 03:21:41;;;;;;;8.70;8.13;;;;;;;8.84;91.38;100708.78;5095293;28;20197;-69
2023/03/19 03:24:08;;;;;;;9.73;8.83;;;;;;;8.77;92.16;100710.97;5113969;28;20276;-69
2023/03/19 03:26:37;;;;;;;10.03;9.37;;;;;;;8.77;92.20;100715.47;5113643;28;20177;-69
2023/03/19 03:29:05;;;;;;;9.60;9.07;;;;;;;8.75;92.22;100712.91;5113587;28;20184;-70
2023/03/19 03:31:32;;;;;;;10.27;9.47;;;;;;;8.77;92.40;100712.81;5117329;28;20679;-70
2023/03/19 03:33:58;;;;;;;9.60;9.27;;;;;;;8.82;91.98;100719.56;5117851;28;20197;-70
2023/03/19 03:36:26;;;;;;;11.40;10.30;;;;;;;8.84;92.41;100716.78;5118179;28;20185;-70
2023/03/19 03:38:54;;;;;;;10.73;9.63;;;;;;;8.89;91.86;100720.00;5099263;28;20193;-70
2023/03/19 03:41:20;;;;;;;10.97;10.07;;;;;;;8.90;91.88;100725.25;5117558;28;20253;-70
2023/03/19 03:43:47;;;;;;;10.67;10.07;;;;;;;8.90;91.33;100721.72;5099150;28;20304;-70
2023/03/19 03:46:13;;;;;;;11.03;9.93;;;;;;;8.90;91.74;100719.06;5117448;28;20181;-70
2023/03/19 03:48:40;;;;;;;15.77;11.77;;;;;;;8.92;91.96;100720.66;5099010;28;20193;-70
2023/03/19 03:51:06;;;;;;;12.43;11.13;;;;;;;8.97;91.44;100725.72;5099042;28;20296;-70
2023/03/19 03:53:33;;;;;;;14.73;10.97;;;;;;;8.93;91.33;100718.84;5117498;28;20220;-70
2023/03/19 03:56:01;;;;;;;12.13;11.23;;;;;;;8.91;91.38;100716.28;5098981;28;20284;-70
2023/03/19 03:58:29;;;;;;;11.57;10.47;;;;;;;8.95;91.48;100722.28;5098828;28;20242;-70
2023/03/19 04:00:55;;;;;;;10.27;9.73;;;;;;;8.98;91.41;100730.09;5098936;28;20292;-70
2023/03/19 04:03:23;;;;;;;10.80;9.63;;;;;;;9.01;91.03;100724.56;5098823;28;20602;-70
2023/03/19 04:05:50;;;;;;;13.80;11.70;;;;;;;8.99;90.99;100725.63;5098784;28;20197;-70
2023/03/19 04:08:18;;;;;;;11.00;9.87;;;;;;;8.99;90.75;100729.13;5098679;28;20651;-70
2023/03/19 04:10:44;;;;;;;12.33;9.37;;;;;;;8.99;91.15;100730.97;5117155;28;20622;-70
2023/03/19 04:13:11;;;;;;;11.00;10.00;;;;;;;8.97;90.58;100727.53;5117054;28;20212;-70
2023/03/19 04:15:40;;;;;;;10.83;9.83;;;;;;;8.99;90.64;100734.47;5098567;28;20194;-70
2023/03/19 04:18:07;;;;;;;15.30;9.27;;;;;;;9.03;90.53;100737.81;5116805;28;20184;-70
2023/03/19 04:20:34;;;;;;;10.90;9.87;;;;;;;9.06;90.35;100738.47;5116846;28;20204;-71
2023/03/19 04:23:02;;;;;;;10.50;9.87;;;;;;;9.08;90.13;100738.38;5116642;28;20205;-70
2023/03/19 04:25:28;;;;;;;10.40;9.47;;;;;;;9.13;89.56;100737.09;5098278;28;20614;-70
2023/03/19 04:27:56;;;;;;;10.30;8.90;;;;;;;9.16;89.35;100738.72;5116667;28;20565;-70
2023/03/19 04:30:26;;;;;;;9.43;8.63;;;;;;;9.11;88.96;100743.50;5098263;28;20201;-71
2023/03/19 04:32:52;;;;;;;9.20;8.60;;;;;;;9.07;89.32;100747.34;5116518;28;20209;-70
2023/03/19 04:35:20;;;;;;;10.33;9.63;;;;;;;9.16;88.97;100749.41;5098262;28;20211;-70
2023/03/19 04:37:47;;;;;;;10.10;9.20;;;;;;;9.18;89.12;100755.50;5099315;28;20584;-70
2023/03/19 04:40:15;;;;;;;10.17;9.67;;;;;;;9.21;88.36;100752.63;5098480;28;20193;-70
2023/03/19 04:42:43;;;;;;;10.17;9.53;;;;;;;9.13;88.67;100757.63;5098088;28;20235;-69
2023/03/19 04:45:17;;;;;;;9.70;8.73;;;;;;;9.18;88.72;100755.50;5099228;28;20544;-70
2023/03/19 04:47:44;;;;;;;11.13;9.33;;;;;;;9.25;88.07;100766.66;5097966;28;20657;-70
2023/03/19 04:50:11;;;;;;;11.87;10.47;;;;;;;9.24;88.13;100765.81;5081444;28;20286;-71
2023/03/19 04:52:40;;;;;;;12.57;9.63;;;;;;;9.29;87.97;100766.34;5116027;28;20694;-70
2023/03/19 04:55:07;;;;;;;9.37;8.97;;;;;;;9.33;87.94;100764.31;5116104;28;20238;-70
2023/03/19 04:57:45;;;;;;;9.33;7.60;;;;;;;9.42;87.30;100774.41;5098688;28;20603;-70
2023/03/19 05:00:13;;;;;;;8.43;7.63;;;;;;;9.49;87.34;100772.19;5097806;28;20192;-70
2023/03/19 05:02:41;;;;;;;9.53;8.80;;;;;;;9.60;86.63;100783.03;5097767;28;20691;-70
2023/03/19 05:05:12;;;;;;;8.07;7.50;;;;;;;9.68;86.14;100770.00;5097669;28;20193;-70
2023/03/19 05:07:40;;;;;;;8.97;8.43;;;;;;;9.77;85.68;100771.22;5098169;28;20284;-70
2023/03/19 05:10:09;;;;;;;7.43;6.70;;;;;;;9.90;85.06;100772.06;5097464;28;20216;-70
2023/03/19 05:12:35;;;;;;;6.47;6.17;;;;;;;10.00;84.35;100773.13;5115850;28;20211;-69
2023/03/19 05:15:04;;;;;;;8.90;6.17;;;;;;;9.99;84.16;100767.91;5097441;28;20194;-69
2023/03/19 05:17:49;;;;;;;13.43;6.10;;;;;;;10.11;83.41;100768.88;5115995;28;20173;-70
2023/03/19 05:20:20;;;;;;;7.73;7.27;;;;;;;10.19;83.20;100769.19;5097690;28;20704;-70
2023/03/19 05:22:53;;;;;;;7.70;7.23;;;;;;;10.25;82.64;100779.50;5097230;28;20213;-69
2023/03/19 05:25:23;;;;;;;5.60;5.50;;;;;;;10.24;82.53;100775.09;5097460;28;20204;-70
2023/03/19 05:27:50;;;;;;;8.17;7.80;;;;;;;10.26;82.70;100775.84;5097342;28;20617;-70
2023/03/19 05:30:19;;;;;;;9.77;9.20;;;;;;;10.28;82.78;100778.41;5097056;28;20589;-70
2023/03/19 05:32:56;;;;;;;11.17;10.37;;;;;;;10.29;82.93;100786.34;5097288;28;20236;-69
2023/03/19 05:35:31;;;;;;;11.20;8.47;;;;;;;10.28;83.56;100787.34;5097089;28;20189;-69
2023/03/19 05:37:58;;;;;;;8.40;7.57;;;;;;;10.36;84.04;100792.16;5115525;28;20268;-69
2023/03/19 05:40:25;;;;;;;5.87;5.67;;;;;;;10.30;84.05;100790.75;5096949;28;20189;-69
2023/03/19 05:42:52;;;;;;;6.17;6.07;;;;;;;10.35;84.11;100790.44;5097042;28;20216;-70
2023/03/19 05:45:22;;;;;;;7.63;7.00;;;;;;;10.32;84.67;100790.63;5097783;28;20224;-71
2023/03/19 05:47:52;;;;;;;6.40;5.97;;;;;;;10.30;85.07;100797.94;5097468;28;20519;-71
2023/03/19 05:50:19;;;;;;;5.60;5.30;;;;;;;10.18;85.74;100795.13;5096964;28;20211;-72
2023/03/19 05:53:04;;;;;;;6.33;6.10;;;;;;;10.22;85.76;100796.63;5114754;28;20211;-71
2023/03/19 05:55:33;;;;;;;8.23;7.77;;;;;;;10.26;85.46;100802.59;5096880;28;20238;-71
2023/03/19 05:58:04;;;;;;;6.20;6.10;;;;;;;10.29;85.00;100810.44;5096882;28;20200;-71
2023/03/19 06:00:31;;;;;;;5.60;5.50;;;;;;;10.32;85.07;100807.59;5115120;28;20602;-71
2023/03/19 06:02:58;;;;;;;7.33;6.67;;;;;;;10.31;85.77;100808.53;5096445;28;20209;-70
2023/03/19 06:05:42;;;;;;;5.90;5.50;;;;;;;10.32;86.06;100807.59;5097434;28;20181;-70
2023/03/19 06:08:24;;;;;;;6.63;6.43;;;;;;;10.30;86.34;100814.00;5096717;28;20655;-70
2023/03/19 06:11:06;;;;;;;6.00;5.70;;;;;;;10.31;86.28;100813.03;5096830;28;20217;-70
2023/03/19 06:13:34;;;;;;;6.87;6.33;;;;;;;10.19;87.02;100815.56;5096270;28;20258;-70
2023/03/19 06:16:05;;;;;;;7.70;7.20;;;;;;;10.18;87.57;100813.00;5096286;28;20192;-70
2023/03/19 06:18:44;;;;;;;7.97;7.57;;;;;;;10.14;87.90;100822.19;5097307;28;20189;-70
2023/03/19 06:21:12;;;;;;;7.70;7.30;;;;;;;10.14;88.01;100825.72;5096215;28;20211;-70
2023/03/19 06:23:39;;;;;;;7.43;7.03;;;;;;;10.15;87.75;100826.56;5096171;28;20213;-70
2023/03/19 06:26:06;;;;;;;7.63;7.43;;;;;;;10.14;88.15;100831.06;5096034;28;20209;-70
2023/03/19 06:28:41;;;;;;;7.80;7.50;;;;;;;10.13;88.85;100821.34;5097023;28;20181;-71
2023/03/19 06:31:08;;;;;;;8.87;8.47;;;;;;;10.06;89.04;100822.72;5096021;28;20213;-71
2023/03/19 06:33:55;;;;;;;9.47;8.87;;;;;;;10.00;89.80;100826.66;5113752;28;20213;-71
2023/03/19 06:36:25;;;;;;;9.67;9.07;;;;;;;10.01;89.89;100838.25;5096203;28;20185;-71
2023/03/19 06:38:52;;;;;;;9.17;8.77;;;;;;;9.98;90.02;100836.63;5095701;28;20288;-71
2023/03/19 06:41:18;;;;;;;9.03;8.43;;;;;;;10.04;90.32;100846.06;5114057;28;20595;-71
2023/03/19 06:43:46;;;;;;;9.07;8.60;;;;;;;10.01;90.27;100838.25;5095769;28;20213;-71
2023/03/19 06:46:12;;;;;;;9.53;8.73;;;;;;;9.97;90.63;100845.59;5114325;28;20173;-71
2023/03/19 06:48:39;;;;;;;9.33;8.83;;;;;;;9.96;90.61;100851.03;5114237;28;20531;-71
2023/03/19 06:51:05;;;;;;;9.60;9.00;;;;;;;10.00;90.99;100847.22;5114082;28;20569;-71
2023/03/19 06:53:32;;;;;;;7.30;7.10;;;;;;;10.12;90.37;100859.75;5114658;28;20201;-71
2023/03/19 06:55:59;;;;;;;9.37;8.83;;;;;;;10.08;90.58;100852.91;5114153;28;20566;-71
2023/03/19 06:58:26;;;;;;;11.37;10.30;;;;;;;9.98;90.65;100852.69;5114155;28;20184;-71
2023/03/19 07:00:52;;;;;;;11.90;10.87;;;;;;;10.02;91.01;100864.03;5113828;28;20181;-71
2023/03/19 07:03:18;;;;;;;11.63;10.63;;;;;;;10.04;90.91;100855.91;5113694;28;20209;-71
2023/03/19 07:05:48;;;;;;;8.80;8.30;;;;;;;10.04;91.36;100858.56;5113974;28;20556;-71
2023/03/19 07:08:15;;;;;;;9.17;8.60;;;;;;;10.00;90.93;100861.44;5113719;28;20663;-71
2023/03/19 07:10:41;;;;;;;10.30;9.63;;;;;;;10.00;90.94;100858.75;5113575;28;20216;-71
2023/03/19 07:13:07;;;;;;;10.53;9.80;;;;;;;10.02;90.78;100862.19;5113627;28;20207;-70
2023/03/19 07:15:35;;;;;;;8.27;7.70;;;;;;;10.01;91.21;100859.66;5113724;28;20180;-70
2023/03/19 07:18:01;;;;;;;7.83;7.40;;;;;;;9.99;90.99;100861.56;5113660;28;20674;-70
2023/03/19 07:20:28;;;;;;;9.07;8.57;;;;;;;10.01;91.55;100870.34;5113628;28;20200;-70
2023/03/19 07:22:54;;;;;;;8.87;8.27;;;;;;;9.99;91.50;100874.94;5113489;28;20207;-70
2023/03/19 07:25:21;;;;;;;8.87;8.40;;;;;;;10.02;91.79;100878.25;5113685;28;20195;-70
2023/03/19 07:27:47;;;;;;;8.77;8.27;;;;;;;9.98;91.65;100875.88;5113795;28;20545;-70
2023/03/19 07:30:15;;;;;;;8.17;7.77;;;;;;;9.98;91.73;100875.88;5113575;28;20642;-71
2023/03/19 07:32:41;;;;;;;8.70;8.40;;;;;;;10.00;91.42;100884.66;5113343;28;20274;-70
2023/03/19 07:35:09;;;;;;;9.13;8.63;;;;;;;9.98;91.71;100884.78;5113497;28;20189;-72
2023/03/19 07:37:35;;;;;;;9.77;9.17;;;;;;;10.01;91.55;100875.69;5113426;28;20196;-72
2023/03/19 07:40:02;;;;;;;12.47;11.00;;;;;;;10.05;91.48;100887.03;5113452;28;20188;-72
2023/03/19 07:42:28;;;;;;;12.90;11.57;;;;;;;10.09;91.45;100891.22;5113315;28;20210;-71
2023/03/19 07:44:55;;;;;;;12.57;11.57;;;;;;;10.14;91.38;100891.78;5113409;28;20190;-71
2023/03/19 07:47:21;;;;;;;14.13;12.87;;;;;;;10.19;91.38;100881.63;5113377;28;20655;-71
2023/03/19 07:49:55;;;;;;;13.73;12.83;;;;;;;10.23;91.29;100885.81;5113672;28;20252;-71
2023/03/19 07:52:22;;;;;;;15.60;14.13;;;;;;;10.28;91.28;100890.84;5113193;28;20300;-70
2023/03/19 07:54:49;;;;;;;16.17;14.73;;;;;;;10.28;90.92;100891.72;5113291;28;20197;-70
2023/03/19 07:57:15;;;;;;;17.00;13.73;;;;;;;10.26;90.93;100893.63;5113549;28;20276;-70
2023/03/19 07:59:42;;;;;;;14.13;12.90;;;;;;;10.27;90.97;100897.16;5114061;28;20209;-70
2023/03/19 08:02:10;;;;;;;13.93;12.73;;;;;;;10.30;90.83;100897.00;5113176;28;20205;-70
2023/03/19 08:04:37;;;;;;;12.60;11.50;;;;;;;10.38;90.56;100898.16;5113754;28;20227;-70
2023/03/19 08:07:03;;;;;;;13.07;12.20;;;;;;;10.42;90.04;100894.31;5113158;28;20193;-70
2023/03/19 08:09:30;;;;;;;12.07;11.27;;;;;;;10.43;90.45;100895.19;5113118;28;20277;-70
2023/03/19 08:11:56;;;;;;;12.57;11.70;;;;;;;10.44;89.51;100902.25;5113271;28;20208;-70
2023/03/19 08:14:23;;;;;;;14.23;13.07;;;;;;;10.46;89.77;100894.09;5113082;28;20189;-70
2023/03/19 08:16:49;;;;;;;12.80;11.83;;;;;;;10.51;89.76;100906.25;5115236;28;20542;-72
2023/03/19 08:19:16;;;;;;;12.57;11.57;;;;;;;10.48;89.91;100905.56;5117377;28;20213;-72
2023/03/19 08:21:42;;;;;;;11.53;10.77;;;;;;;10.46;90.06;100911.03;5116659;28;20188;-70
2023/03/19 08:24:08;;;;;;;10.37;9.97;;;;;;;10.51;89.71;100910.72;5116816;28;20205;-70
2023/03/19 08:26:35;;;;;;;10.50;9.07;;;;;;;10.50;89.56;100914.38;5117007;28;20250;-70
2023/03/19 08:29:03;;;;;;;9.63;9.33;;;;;;;10.51;89.61;100916.94;5116616;28;20185;-70
2023/03/19 08:31:29;;;;;;;10.23;9.53;;;;;;;10.60;89.65;100923.47;5116773;28;20675;-70
2023/03/19 08:33:58;;;;;;;9.50;8.97;;;;;;;10.52;88.69;100925.84;5116497;28;20209;-70
2023/03/19 08:36:26;;;;;;;10.30;9.47;;;;;;;10.57;88.68;100927.22;5117075;28;20182;-70
2023/03/19 08:38:53;;;;;;;10.00;9.27;;;;;;;10.53;88.70;100932.88;5116488;28;20188;-70
2023/03/19 08:41:21;;;;;;;9.87;8.93;;;;;;;10.49;88.06;100928.72;5116439;28;20213;-70
2023/03/19 08:43:47;;;;;;;10.37;9.63;;;;;;;10.48;88.31;100935.03;5116297;28;20213;-70
2023/03/19 08:46:15;;;;;;;11.03;9.97;;;;;;;10.54;88.43;100938.16;5116585;28;20189;-70
2023/03/19 08:48:41;;;;;;;12.73;11.70;;;;;;;10.59;87.29;100932.47;5116548;28;20191;-70
2023/03/19 08:51:09;;;;;;;12.77;11.53;;;;;;;10.60;87.71;100940.38;5116113;28;20700;-70
2023/03/19 08:53:37;;;;;;;11.53;10.70;;;;;;;10.63;87.80;100940.19;5116085;28;20201;-70
2023/03/19 08:56:06;;;;;;;9.83;9.03;;;;;;;10.73;86.71;100945.78;5116190;28;20557;-70
2023/03/19 08:58:33;;;;;;;9.70;8.87;;;;;;;10.79;86.90;100941.81;5116043;28;20211;-70
2023/03/19 09:01:11;;;;;;;9.90;9.20;;;;;;;10.83;86.91;100944.16;5116586;28;20196;-70
2023/03/19 09:03:39;;;;;;;8.80;8.40;;;;;;;10.89;85.75;100948.25;5116007;28;20205;-71
2023/03/19 09:06:08;;;;;;;7.33;7.13;;;;;;;10.97;85.93;100951.25;5116502;28;20184;-71
2023/03/19 09:08:36;;;;;;;8.10;7.90;;;;;;;11.03;85.22;100947.28;5116743;28;20593;-71
2023/03/19 09:11:03;;;;;;;7.97;7.77;;;;;;;11.13;85.52;100945.66;5116020;28;20181;-71
2023/03/19 09:13:30;;;;;;;7.83;7.67;;;;;;;11.14;84.36;100947.38;5115710;28;20205;-70
2023/03/19 09:15:56;;;;;;;8.40;7.73;;;;;;;11.26;84.41;100945.66;5115751;28;20265;-71
2023/03/19 09:18:24;;;;;;;9.13;8.57;;;;;;;11.36;84.38;100940.50;5115744;28;20185;-71
2023/03/19 09:20:51;;;;;;;7.40;7.13;;;;;;;11.43;84.11;100949.81;5116198;28;20191;-71
2023/03/19 09:23:19;;;;;;;7.97;7.57;;;;;;;11.60;84.11;100952.13;5115966;28;20209;-70
2023/03/19 09:25:45;;;;;;;7.97;7.60;;;;;;;11.68;83.91;100952.44;5115508;28;20189;-70
2023/03/19 09:28:12;;;;;;;8.67;8.27;;;;;;;11.88;83.77;100953.69;5114446;28;20269;-70
2023/03/19 09:30:38;;;;;;;8.10;7.80;;;;;;;11.96;81.97;100946.91;5115462;28;20196;-70
2023/03/19 09:33:06;;;;;;;7.60;7.23;;;;;;;12.07;82.28;100950.50;5115569;28;20216;-70
2023/03/19 09:35:33;;;;;;;8.17;7.87;;;;;;;12.19;81.53;100953.25;5115683;28;20185;-70
2023/03/19 09:38:00;;;;;;;6.57;6.37;;;;;;;12.40;82.23;100958.81;5115668;28;20178;-70
2023/03/19 09:40:37;;;;;;;8.13;7.67;;;;;;;12.55;81.71;100952.28;5115237;28;20670;-70
2023/03/19 09:43:30;;;;;;;8.17;7.83;;;;;;;12.54;79.95;100955.94;5115736;28;20208;-70
2023/03/19 09:45:58;;;;;;;7.67;7.37;;;;;;;12.45;77.97;100959.31;5115207;28;20621;-70
2023/03/19 09:48:39;;;;;;;8.00;7.50;;;;;;;12.50;78.12;100957.16;5115395;28;20194;-70
2023/03/19 09:51:07;;;;;;;7.23;6.90;;;;;;;12.45;78.13;100964.69;5115095;28;20256;-70
2023/03/19 09:53:57;;;;;;;6.83;6.37;;;;;;;12.58;78.98;100968.16;5114891;28;20205;-70
2023/03/19 09:56:24;;;;;;;7.47;7.37;;;;;;;12.57;77.62;100969.16;5115275;28;20261;-70
2023/03/19 09:58:51;;;;;;;6.60;6.40;;;;;;;12.48;77.66;100969.84;5115687;28;20190;-70
2023/03/19 10:01:27;;;;;;;7.57;7.17;;;;;;;12.38;77.13;100963.44;5114783;28;20181;-70
2023/03/19 10:04:28;;;;;;;8.13;7.83;;;;;;;12.43;77.68;100972.03;5114770;28;20236;-70
2023/03/19 10:07:07;;;;;;;8.93;8.60;;;;;;;12.48;78.10;100978.75;5114603;28;20534;-70
2023/03/19 10:09:53;;;;;;;8.57;8.23;;;;;;;12.68;77.82;100974.53;5114981;28;20185;-70
2023/03/19 10:12:43;;;;;;;7.80;7.20;;;;;;;12.73;77.44;100976.88;5115354;28;20700;-70
2023/03/19 10:15:26;;;;;;;7.67;7.27;;;;;;;12.83;76.83;100975.19;5115160;28;20179;-70
2023/03/19 10:17:57;;;;;;;7.13;6.80;;;;;;;12.85;77.14;100981.31;5114934;28;20716;-70
2023/03/19 10:20:29;;;;;;;6.93;6.73;;;;;;;12.81;76.69;100981.66;5114616;28;20188;-70
2023/03/19 10:23:16;;;;;;;8.20;7.90;;;;;;;12.82;76.04;100980.69;5115146;28;20205;-70
2023/03/19 10:25:43;;;;;;;7.37;7.27;;;;;;;12.74;76.00;100975.91;5114510;28;20192;-71
2023/03/19 10:28:17;;;;;;;7.77;7.10;;;;;;;12.80;75.75;100974.56;5114598;28;20196;-71
2023/03/19 10:30:54;;;;;;;7.23;6.97;;;;;;;12.73;75.87;100988.47;5114334;28;20212;-71
2023/03/19 10:33:30;;;;;;;8.13;7.80;;;;;;;12.77;75.48;100978.34;5114182;28;20678;-70
2023/03/19 10:36:02;;;;;;;7.80;7.57;;;;;;;12.83;76.74;100979.72;5114545;28;20619;-70
2023/03/19 10:38:32;;;;;;;8.93;8.33;;;;;;;12.86;76.51;100985.72;5114516;28;20260;-70
2023/03/19 10:41:15;;;;;;;8.10;7.67;;;;;;;12.88;75.35;100994.53;5114636;28;20191;-70
2023/03/19 10:43:46;;;;;;;7.30;7.10;;;;;;;13.02;75.67;100990.75;5114262;28;20216;-70
2023/03/19 10:46:14;;;;;;;8.50;8.20;;;;;;;13.02;74.74;100990.75;5114363;28;20543;-70
2023/03/19 10:48:45;;;;;;;7.63;7.43;;;;;;;13.01;74.54;100994.41;5114270;28;20221;-70
2023/03/19 10:51:20;;;;;;;10.93;8.17;;;;;;;12.95;74.36;100994.88;5113934;28;20677;-70
2023/03/19 10:53:46;;;;;;;7.97;7.70;;;;;;;12.90;75.51;100997.91;5114239;28;20577;-71
2023/03/19 10:56:19;;;;;;;8.23;8.03;;;;;;;12.90;74.47;100997.06;5114441;28;20189;-71
2023/03/19 10:59:20;;;;;;;7.33;7.23;;;;;;;12.85;74.68;101002.81;5114263;28;20165;-71
2023/03/19 11:01:47;;;;;;;6.77;6.67;;;;;;;12.83;75.22;100994.00;5096335;28;20193;-69
2023/03/19 11:04:22;;;;;;;7.13;6.97;;;;;;;12.78;75.03;101001.56;5113792;28;20185;-70
2023/03/19 11:06:52;;;;;;;8.03;7.83;;;;;;;12.81;74.74;101005.84;5113990;28;20176;-70
2023/03/19 11:09:41;;;;;;;7.83;7.53;;;;;;;12.88;75.17;101001.72;5113737;28;20695;-70
2023/03/19 11:12:40;;;;;;;6.63;6.43;;;;;;;12.88;75.07;101012.47;5113869;28;20701;-70
2023/03/19 11:15:20;;;;;;;5.93;5.80;;;;;;;12.90;75.19;101006.00;5058352;28;20332;-70
2023/03/19 11:18:05;;;;;;;5.77;5.67;;;;;;;12.89;75.08;100998.91;5114279;28;20187;-71
2023/03/19 11:20:35;;;;;;;6.93;6.47;;;;;;;12.81;76.05;101013.91;5113900;28;20183;-71
2023/03/19 11:23:08;;;;;;;5.53;5.43;;;;;;;12.80;77.21;101017.59;5113750;28;20200;-70
2023/03/19 11:25:38;;;;;;;7.40;6.70;;;;;;;12.74;77.50;101014.41;5113526;28;20206;-70
2023/03/19 11:28:14;;;;;;;4.40;4.40;;;;;;;12.73;78.26;101017.19;5113644;28;20579;-70
2023/03/19 11:30:45;;;;;;;4.80;4.70;;;;;;;12.74;78.33;101022.47;5113912;28;20526;-70
2023/03/19 11:33:37;;;;;;;4.07;3.97;;;;;;;12.64;79.44;101016.06;5113758;28;20578;-70
2023/03/19 11:36:26;;;;;;;4.10;4.00;;;;;;;12.49;79.98;101023.44;5113798;28;20631;-70
2023/03/19 11:39:21;;;;;;;4.83;4.73;;;;;;;12.33;81.21;101029.13;5113751;28;20177;-71